createdAt,value
2019-03-02T00:02:28.363Z,23.97
2019-03-02T00:06:32.770Z,22.10
2019-03-02T00:10:36.305Z,22.80
2019-03-02T00:14:39.378Z,22.40
2019-03-02T00:18:42.376Z,24.20
2019-03-02T00:22:45.504Z,21.40
2019-03-02T00:26:48.502Z,23.67
2019-03-02T00:30:54.836Z,23.27
2019-03-02T00:34:58.000Z,24.53
2019-03-02T00:39:01.675Z,23.90
2019-03-02T00:43:04.817Z,23.50
2019-03-02T00:47:07.832Z,22.67
2019-03-02T00:51:11.263Z,24.53
2019-03-02T00:55:15.149Z,26.50
2019-03-02T00:59:18.196Z,23.23
2019-03-02T01:03:21.289Z,26.40
2019-03-02T01:07:24.554Z,24.60
2019-03-02T01:11:29.547Z,26.17
2019-03-02T01:15:32.643Z,28.17
2019-03-02T01:19:35.649Z,25.30
2019-03-02T01:23:38.735Z,24.43
2019-03-02T01:27:41.738Z,25.07
2019-03-02T01:31:45.999Z,25.33
2019-03-02T01:35:49.089Z,25.70
2019-03-02T01:39:52.168Z,23.27
2019-03-02T01:43:55.175Z,23.00
2019-03-02T01:47:58.186Z,22.53
2019-03-02T01:52:01.275Z,23.07
2019-03-02T01:56:06.153Z,21.07
2019-03-02T02:00:13.767Z,23.13
2019-03-02T02:04:18.890Z,23.47
2019-03-02T02:08:22.159Z,22.80
2019-03-02T02:12:25.485Z,23.63
2019-03-02T02:16:30.091Z,21.77
2019-03-02T02:20:33.090Z,21.90
2019-03-02T02:24:36.196Z,23.40
2019-03-02T02:28:39.206Z,23.97
2019-03-02T02:32:43.461Z,22.50
2019-03-02T02:36:46.471Z,23.00
2019-03-02T02:40:49.496Z,22.90
2019-03-02T02:44:52.755Z,20.37
2019-03-02T02:48:55.779Z,23.37
2019-03-02T02:53:05.862Z,21.47
2019-03-02T02:57:03.823Z,21.73
2019-03-02T03:01:06.828Z,19.10
2019-03-02T03:05:14.647Z,19.53
2019-03-02T03:09:18.887Z,19.10
2019-03-02T03:13:21.897Z,21.00
2019-03-02T03:17:28.291Z,17.40
2019-03-02T03:21:29.792Z,16.90
2019-03-02T03:25:32.837Z,17.70
2019-03-02T03:29:35.857Z,14.50
2019-03-02T03:33:43.672Z,13.57
2019-03-02T03:37:50.443Z,13.83
2019-03-02T03:41:50.544Z,14.47
2019-03-02T03:45:53.553Z,13.93
2019-03-02T03:49:56.560Z,13.80
2019-03-02T03:54:01.763Z,15.20
2019-03-02T03:58:04.492Z,15.77
2019-03-02T04:02:07.616Z,14.77
2019-03-02T04:06:10.626Z,15.53
2019-03-02T04:10:14.999Z,13.80
2019-03-02T04:14:19.086Z,13.40
2019-03-02T04:18:50.138Z,14.67
2019-03-02T04:22:53.250Z,14.73
2019-03-02T04:26:56.414Z,15.00
2019-03-02T04:30:59.424Z,14.50
2019-03-02T04:35:07.485Z,14.00
2019-03-02T04:39:13.608Z,14.77
2019-03-02T04:43:15.394Z,13.53
2019-03-02T04:47:18.391Z,13.93
2019-03-02T04:51:21.473Z,15.50
2019-03-02T04:55:24.487Z,15.13
2019-03-02T04:59:27.488Z,15.90
2019-03-02T05:03:30.504Z,14.83
2019-03-02T05:07:33.525Z,13.23
2019-03-02T05:11:39.320Z,15.60
2019-03-02T05:15:41.500Z,16.53
2019-03-02T05:19:44.600Z,15.83
2019-03-02T05:23:47.621Z,15.50
2019-03-02T05:27:50.702Z,16.07
2019-03-02T05:31:53.699Z,16.23
2019-03-02T05:35:57.868Z,16.70
2019-03-02T05:40:00.961Z,16.43
2019-03-02T05:44:03.984Z,15.27
2019-03-02T05:48:07.014Z,16.47
2019-03-02T05:52:10.018Z,16.23
2019-03-02T05:56:13.108Z,16.30
2019-03-02T06:00:18.517Z,17.83
2019-03-02T06:08:24.569Z,17.37
2019-03-02T06:12:27.581Z,16.70
2019-03-02T06:16:30.593Z,17.30
2019-03-02T06:20:35.580Z,19.17
2019-03-02T06:24:41.105Z,18.50
2019-03-02T06:28:43.455Z,19.77
2019-03-02T06:32:46.455Z,21.60
2019-03-02T06:36:49.867Z,21.27
2019-03-02T06:40:54.909Z,18.90
2019-03-02T06:44:57.816Z,21.67
2019-03-02T06:49:00.892Z,21.17
2019-03-02T06:53:03.897Z,23.70
2019-03-02T06:57:06.982Z,24.57
2019-03-02T07:01:09.985Z,24.30
2019-03-02T07:05:13.215Z,30.70
2019-03-02T07:09:16.288Z,34.10
2019-03-02T07:13:21.150Z,30.83
2019-03-02T07:17:27.622Z,32.60
2019-03-02T07:21:30.843Z,33.73
2019-03-02T07:25:36.938Z,29.67
2019-03-02T07:29:38.872Z,31.30
2019-03-02T07:33:41.940Z,30.60
2019-03-02T07:37:45.620Z,33.30
2019-03-02T07:41:48.628Z,30.67
2019-03-02T07:45:51.937Z,32.57
2019-03-02T07:49:54.939Z,32.43
2019-03-02T07:53:58.062Z,33.57
2019-03-02T07:58:01.079Z,29.30
2019-03-02T08:02:04.376Z,31.07
2019-03-02T08:06:07.388Z,32.10
2019-03-02T08:10:11.413Z,31.53
2019-03-02T08:14:16.070Z,30.97
2019-03-02T08:18:21.801Z,31.97
2019-03-02T08:22:24.248Z,27.80
2019-03-02T08:26:27.276Z,30.20
2019-03-02T08:30:33.483Z,30.30
2019-03-02T08:34:35.208Z,30.63
2019-03-02T08:38:38.983Z,33.07
2019-03-02T08:42:42.599Z,30.97
2019-03-02T08:46:45.804Z,31.97
2019-03-02T08:50:49.722Z,27.80
2019-03-02T08:54:57.130Z,28.57
2019-03-02T08:59:01.992Z,30.47
2019-03-02T09:03:03.780Z,32.77
2019-03-02T09:07:07.770Z,34.07
2019-03-02T09:11:11.822Z,30.50
2019-03-02T09:15:30.298Z,29.60
2019-03-02T09:19:33.550Z,28.43
2019-03-02T09:23:37.129Z,29.57
2019-03-02T09:27:40.254Z,30.87
2019-03-02T09:31:43.517Z,30.27
2019-03-02T09:35:49.082Z,31.40
2019-03-02T09:39:53.336Z,33.30
2019-03-02T09:44:00.921Z,33.20
2019-03-02T09:48:01.334Z,30.50
2019-03-02T09:52:04.343Z,31.77
2019-03-02T09:56:07.433Z,31.37
2019-03-02T10:00:23.721Z,30.80
2019-03-02T10:04:24.483Z,35.27
2019-03-02T10:08:31.447Z,34.80
2019-03-02T10:12:35.044Z,32.40
2019-03-02T10:16:38.422Z,32.60
2019-03-02T10:20:42.829Z,33.40
2019-03-02T10:24:49.796Z,31.60
2019-03-02T10:28:52.104Z,37.73
2019-03-02T10:32:56.866Z,35.17
2019-03-02T10:37:03.594Z,34.90
2019-03-02T10:41:07.352Z,36.77
2019-03-02T10:45:15.755Z,35.47
2019-03-02T10:49:18.957Z,35.10
2019-03-02T10:53:24.230Z,38.30
2019-03-02T10:57:27.138Z,39.83
2019-03-02T11:01:30.469Z,35.27
2019-03-02T11:05:41.301Z,37.00
2019-03-02T11:09:46.393Z,36.20
2019-03-02T11:14:00.456Z,35.77
2019-03-02T11:18:11.605Z,35.37
2019-03-02T11:22:17.041Z,37.43
2019-03-02T11:26:38.690Z,38.20
2019-03-02T11:31:04.163Z,35.70
2019-03-02T11:35:28.879Z,36.00
2019-03-02T11:39:40.760Z,39.13
2019-03-02T11:44:04.835Z,40.10
2019-03-02T11:48:17.420Z,39.07
2019-03-02T11:52:35.046Z,38.77
2019-03-02T11:56:50.501Z,36.07
2019-03-02T12:01:10.378Z,36.30
2019-03-02T12:05:15.399Z,35.73
2019-03-02T12:09:32.404Z,38.83
2019-03-02T12:13:37.457Z,41.07
2019-03-02T12:17:42.626Z,39.57
2019-03-02T12:22:04.683Z,37.60
2019-03-02T12:26:12.920Z,39.13
2019-03-02T12:30:22.278Z,37.67
2019-03-02T12:34:30.951Z,39.87
2019-03-02T12:38:49.140Z,35.33
2019-03-02T12:43:07.561Z,39.23
2019-03-02T12:47:17.420Z,37.13
2019-03-02T12:51:23.819Z,34.17
2019-03-02T12:55:28.893Z,36.77
2019-03-02T12:59:40.501Z,36.53
2019-03-02T13:03:51.623Z,32.70
2019-03-02T13:08:14.956Z,32.43
2019-03-02T13:12:15.981Z,32.60
2019-03-02T13:16:23.801Z,33.17
2019-03-02T13:20:28.414Z,30.63
2019-03-02T13:24:53.702Z,28.93
2019-03-02T13:28:58.098Z,27.07
2019-03-02T13:33:15.397Z,28.30
2019-03-02T13:37:21.248Z,28.00
2019-03-02T13:41:30.345Z,26.70
2019-03-02T13:45:46.088Z,28.37
2019-03-02T13:49:54.630Z,26.90
2019-03-02T13:54:02.834Z,26.70
2019-03-02T13:58:06.879Z,25.83
2019-03-02T14:02:29.149Z,24.77
2019-03-02T14:06:46.505Z,23.90
2019-03-02T14:11:03.705Z,26.10
2019-03-02T14:15:09.432Z,25.27
2019-03-02T14:19:23.516Z,25.13
2019-03-02T14:23:37.425Z,24.60
2019-03-02T14:27:58.701Z,25.37
2019-03-02T14:32:20.670Z,23.87
2019-03-02T14:36:30.734Z,23.33
2019-03-02T14:40:35.568Z,25.33
2019-03-02T14:44:40.715Z,23.87
2019-03-02T14:48:54.720Z,22.17
2019-03-02T14:53:00.247Z,21.60
2019-03-02T14:57:05.339Z,23.33
2019-03-02T15:01:27.125Z,19.17
2019-03-02T15:05:38.059Z,19.20
2019-03-02T15:09:45.553Z,17.40
2019-03-02T15:13:53.025Z,16.63
2019-03-02T15:18:03.891Z,17.63
2019-03-02T15:22:11.773Z,18.13
2019-03-02T15:26:32.154Z,17.87
2019-03-02T15:30:39.982Z,19.10
2019-03-02T15:35:02.229Z,17.03
2019-03-02T15:39:24.493Z,15.57
2019-03-02T15:43:46.401Z,13.50
2019-03-02T15:47:54.233Z,15.30
2019-03-02T15:52:17.357Z,13.77
2019-03-02T15:56:29.608Z,14.47
2019-03-02T16:00:50.587Z,13.27
2019-03-02T16:05:07.762Z,13.00
2019-03-02T16:09:15.701Z,13.60
2019-03-02T16:13:26.589Z,13.87
2019-03-02T16:17:48.162Z,13.93
2019-03-02T16:21:57.211Z,13.57
2019-03-02T16:26:13.032Z,12.47
2019-03-02T16:30:22.356Z,14.63
2019-03-02T16:34:27.875Z,14.37
2019-03-02T16:38:45.242Z,14.40
2019-03-02T16:43:06.909Z,14.03
2019-03-02T16:47:14.965Z,13.33
2019-03-02T16:51:26.109Z,13.63
2019-03-02T16:55:42.073Z,12.43
2019-03-02T17:00:08.837Z,9.67
2019-03-02T17:04:29.235Z,8.97
2019-03-02T17:08:37.201Z,6.90
2019-03-02T17:12:50.007Z,8.57
2019-03-02T17:17:13.960Z,6.90
2019-03-02T17:21:20.598Z,8.50
2019-03-02T17:25:44.488Z,7.77
2019-03-02T17:29:55.393Z,7.10
2019-03-02T17:34:15.685Z,6.83
2019-03-02T17:38:20.749Z,7.60
2019-03-02T17:42:28.180Z,6.60
2019-03-02T17:46:32.922Z,6.73
2019-03-02T17:50:53.016Z,7.43
2019-03-02T17:55:03.106Z,5.20
2019-03-02T17:59:09.109Z,6.00
2019-03-02T18:03:33.960Z,5.90
2019-03-02T18:07:47.852Z,6.00
2019-03-02T18:11:55.933Z,6.20
2019-03-02T18:16:05.683Z,4.50
2019-03-02T18:20:08.718Z,4.83
2019-03-02T18:24:11.842Z,5.93
2019-03-02T18:28:15.589Z,4.67
2019-03-02T18:32:19.080Z,6.13
2019-03-02T18:36:22.413Z,5.80
2019-03-02T18:40:25.572Z,5.20
2019-03-02T18:44:28.785Z,4.90
2019-03-02T18:48:45.824Z,5.20
2019-03-02T18:53:04.237Z,5.67
2019-03-02T18:57:09.766Z,5.20
2019-03-02T19:01:12.896Z,5.10
2019-03-02T19:05:16.602Z,5.33
2019-03-02T19:09:19.748Z,5.70
2019-03-02T19:13:22.861Z,6.23
2019-03-02T19:17:26.049Z,5.80
2019-03-02T19:21:29.118Z,4.63
2019-03-02T19:25:32.287Z,4.33
2019-03-02T19:29:35.439Z,4.90
2019-03-02T19:33:38.621Z,4.70
2019-03-02T19:37:41.923Z,4.43
2019-03-02T19:41:45.031Z,4.47
2019-03-02T19:45:49.228Z,4.43
2019-03-02T19:49:52.468Z,4.07
2019-03-02T19:53:55.660Z,4.03
2019-03-02T19:57:58.865Z,3.73
2019-03-02T20:02:03.435Z,4.07
2019-03-02T20:06:07.674Z,4.80
2019-03-02T20:10:13.062Z,4.83
2019-03-02T20:14:16.419Z,5.77
2019-03-02T20:18:19.670Z,6.37
2019-03-02T20:22:22.788Z,5.53
2019-03-02T20:26:25.903Z,6.10
2019-03-02T20:30:29.429Z,5.50
2019-03-02T20:34:32.616Z,5.00
2019-03-02T20:38:35.801Z,5.13
2019-03-02T20:42:39.042Z,5.90
2019-03-02T20:46:42.224Z,5.17
2019-03-02T20:50:45.342Z,4.83
2019-03-02T20:54:48.514Z,4.73
2019-03-02T20:58:51.660Z,4.73
2019-03-02T21:02:55.814Z,4.67
2019-03-02T21:07:00.175Z,5.50
2019-03-02T21:11:03.511Z,3.50
2019-03-02T21:15:13.163Z,4.07
2019-03-02T21:19:16.291Z,5.53
2019-03-02T21:23:19.448Z,4.20
2019-03-02T21:27:22.931Z,4.50
2019-03-02T21:31:26.118Z,3.90
2019-03-02T21:35:29.294Z,4.37
2019-03-02T21:39:32.669Z,4.00
2019-03-02T21:43:35.955Z,3.83
2019-03-02T21:47:39.134Z,3.57
2019-03-02T21:51:42.304Z,3.90
2019-03-02T21:55:45.612Z,4.50
2019-03-02T21:59:48.780Z,4.40
2019-03-02T22:03:52.110Z,4.73
2019-03-02T22:07:57.398Z,5.10
2019-03-02T22:12:00.545Z,4.80
2019-03-02T22:16:03.853Z,6.33
2019-03-02T22:20:11.404Z,6.63
2019-03-02T22:24:14.579Z,6.30
2019-03-02T22:28:17.880Z,7.83
2019-03-02T22:32:21.058Z,7.67
2019-03-02T22:36:24.169Z,6.87
2019-03-02T22:40:27.364Z,6.30
2019-03-02T22:44:30.480Z,8.90
2019-03-02T22:48:33.578Z,7.53
2019-03-02T22:52:36.705Z,8.33
2019-03-02T22:56:39.876Z,7.83
2019-03-02T23:00:49.444Z,7.07
2019-03-02T23:04:52.638Z,7.60
2019-03-02T23:08:57.771Z,8.00
2019-03-02T23:13:01.162Z,9.20
2019-03-02T23:17:04.366Z,7.90
2019-03-02T23:21:07.502Z,9.00
2019-03-02T23:25:13.106Z,9.23
2019-03-02T23:29:16.325Z,9.10
2019-03-02T23:33:19.545Z,8.87
2019-03-02T23:37:22.760Z,8.90
2019-03-02T23:41:25.837Z,8.53
2019-03-02T23:45:28.966Z,8.47
2019-03-02T23:49:32.096Z,9.60
2019-03-02T23:53:35.427Z,9.33
2019-03-02T23:57:38.761Z,8.87
